Time;durP1;ratioP1;P1;durP2;ratioP2;P2;SDS_P1;SDS_P2;PMS_P1;PMS_P2;Temp;Humidity;BMP_temperature;BMP_pressure;BME280_temperature;BME280_humidity;BME280_pressure;Samples;Min_cycle;Max_cycle;Signal;HPM_P1;HPM_P2
2022/08/23 00:01:32;;;;;;;10.43;2.65;;;16.70;99.90;;;;;;6246889;23;20066;-80
2022/08/23 00:04:08;;;;;;;3.25;2.28;;;16.60;99.90;;;;;;6247783;23;20054;-80
2022/08/23 00:06:34;;;;;;;7.13;2.35;;;16.60;99.90;;;;;;6245440;23;20028;-80
2022/08/23 00:09:00;;;;;;;7.05;2.45;;;16.50;99.90;;;;;;6247252;23;20043;-80
2022/08/23 00:11:38;;;;;;;4.13;2.47;;;16.40;99.90;;;;;;6219518;23;20016;-80
2022/08/23 00:14:10;;;;;;;2.58;1.60;;;16.40;99.90;;;;;;6247679;23;20023;-80
2022/08/23 00:16:36;;;;;;;3.28;1.90;;;16.30;99.90;;;;;;6219573;23;20074;-80
2022/08/23 00:19:04;;;;;;;4.97;2.50;;;16.30;99.90;;;;;;6219049;23;20087;-80
2022/08/23 00:21:30;;;;;;;6.60;3.10;;;16.20;99.90;;;;;;6247159;23;20022;-80
2022/08/23 00:23:56;;;;;;;6.65;3.08;;;16.20;99.90;;;;;;6220174;23;20016;-80
2022/08/23 00:26:22;;;;;;;10.38;3.40;;;16.20;99.90;;;;;;6246400;23;20016;-80
2022/08/23 00:28:48;;;;;;;6.45;3.00;;;16.10;99.90;;;;;;6219814;23;20013;-80
2022/08/23 00:31:18;;;;;;;10.35;2.90;;;16.10;99.90;;;;;;6247086;23;20027;-80
2022/08/23 00:33:44;;;;;;;5.55;2.80;;;16.10;99.90;;;;;;6244940;23;20468;-80
2022/08/23 00:36:09;;;;;;;4.78;2.05;;;16.10;99.90;;;;;;6246985;23;20521;-80
2022/08/23 00:38:35;;;;;;;5.40;1.67;;;16.10;99.90;;;;;;6219676;23;20096;-80
2022/08/23 00:41:02;;;;;;;4.70;2.58;;;16.00;99.90;;;;;;6219286;23;20016;-80
2022/08/23 00:49:21;;;;;;;9.25;3.58;;;16.00;99.90;;;;;;6219569;23;20028;-80
2022/08/23 00:52:24;;;;;;;4.03;2.80;;;15.90;99.90;;;;;;6220190;23;20043;-80
2022/08/23 00:54:53;;;;;;;4.53;2.95;;;15.90;99.90;;;;;;6183610;23;20056;-80
2022/08/23 00:57:19;;;;;;;6.50;3.63;;;15.90;99.90;;;;;;6246576;23;20043;-80
2022/08/23 00:59:45;;;;;;;6.13;3.70;;;15.90;99.90;;;;;;6247202;23;20050;-80
2022/08/23 01:02:12;;;;;;;6.10;3.85;;;15.90;99.90;;;;;;6245747;23;20338;-80
2022/08/23 01:04:43;;;;;;;7.18;4.15;;;15.90;99.90;;;;;;6218873;23;20020;-80
2022/08/23 01:07:25;;;;;;;5.80;4.00;;;15.90;99.90;;;;;;6246691;23;20314;-80
2022/08/23 01:09:55;;;;;;;7.13;4.40;;;15.90;99.90;;;;;;6218961;23;20016;-80
2022/08/23 01:12:29;;;;;;;7.75;5.10;;;15.90;99.90;;;;;;6246245;23;20012;-80
2022/08/23 01:15:01;;;;;;;7.00;5.10;;;15.90;99.90;;;;;;6245719;23;20012;-80
2022/08/23 01:17:50;;;;;;;7.85;4.95;;;15.90;99.90;;;;;;6194429;23;20017;-80
2022/08/23 01:20:21;;;;;;;6.25;4.35;;;15.90;99.90;;;;;;6219935;23;20020;-80
2022/08/23 01:23:01;;;;;;;7.57;4.63;;;15.80;99.90;;;;;;6193101;23;20077;-80
2022/08/23 01:25:31;;;;;;;6.75;4.82;;;15.80;99.90;;;;;;6246907;23;20066;-80
2022/08/23 01:27:58;;;;;;;6.22;5.03;;;15.80;99.90;;;;;;6246086;23;20016;-80
2022/08/23 01:30:31;;;;;;;9.27;5.47;;;15.80;99.90;;;;;;6218823;23;20020;-80
2022/08/23 01:33:00;;;;;;;8.73;5.25;;;15.80;99.90;;;;;;6217852;23;20020;-80
2022/08/23 01:35:42;;;;;;;8.43;5.40;;;15.70;99.90;;;;;;6219197;23;20013;-80
2022/08/23 01:38:10;;;;;;;12.00;4.50;;;15.70;99.90;;;;;;6194814;23;20016;-80
2022/08/23 01:40:37;;;;;;;6.22;4.47;;;15.70;99.90;;;;;;6219663;23;20013;-80
2022/08/23 01:43:04;;;;;;;8.00;4.50;;;15.70;99.90;;;;;;6244950;23;20440;-80
2022/08/23 01:45:30;;;;;;;11.13;6.57;;;15.70;99.90;;;;;;6218964;23;20023;-80
2022/08/23 01:47:56;;;;;;;9.57;6.95;;;15.70;99.90;;;;;;6220013;23;20095;-80
2022/08/23 01:50:23;;;;;;;10.93;7.32;;;15.70;99.90;;;;;;6244753;23;20051;-80
2022/08/23 01:52:49;;;;;;;10.27;6.65;;;15.70;99.90;;;;;;6246030;23;20016;-80
2022/08/23 01:55:15;;;;;;;10.23;7.10;;;15.70;99.90;;;;;;6219517;23;20091;-80
2022/08/23 01:57:43;;;;;;;8.40;7.10;;;15.80;99.90;;;;;;6245776;23;20070;-80
2022/08/23 02:00:10;;;;;;;5.93;5.10;;;15.80;99.90;;;;;;6246098;23;20055;-80
2022/08/23 02:02:36;;;;;;;6.22;5.18;;;15.80;99.90;;;;;;6194493;23;20008;-80
2022/08/23 02:05:07;;;;;;;6.90;5.25;;;15.80;99.90;;;;;;6244938;23;20016;-80
2022/08/23 02:07:33;;;;;;;6.68;5.68;;;15.70;99.90;;;;;;6192416;23;20016;-80
2022/08/23 02:09:59;;;;;;;6.18;5.22;;;15.70;99.90;;;;;;6218283;23;20022;-80
2022/08/23 02:12:24;;;;;;;7.78;6.18;;;15.70;99.90;;;;;;6245151;23;20042;-80
2022/08/23 02:14:50;;;;;;;7.40;5.80;;;15.70;99.90;;;;;;6219408;23;20076;-80
2022/08/23 02:17:17;;;;;;;10.00;6.13;;;15.70;99.90;;;;;;6245946;23;20020;-80
2022/08/23 02:19:43;;;;;;;8.50;5.78;;;15.70;99.90;;;;;;6245572;23;20012;-80
2022/08/23 02:22:10;;;;;;;9.10;6.75;;;15.70;99.90;;;;;;6218569;22;20012;-81
2022/08/23 02:24:43;;;;;;;11.68;6.10;;;15.70;99.90;;;;;;6219125;23;20039;-80
2022/08/23 02:27:10;;;;;;;11.27;6.38;;;15.60;99.90;;;;;;6215889;23;20128;-80
2022/08/23 02:29:37;;;;;;;14.77;6.38;;;15.60;99.90;;;;;;6219327;23;20084;-80
2022/08/23 02:32:03;;;;;;;10.20;5.85;;;15.60;99.90;;;;;;6244556;23;20483;-80
2022/08/23 02:34:30;;;;;;;10.90;7.28;;;15.60;99.90;;;;;;6219345;23;20340;-80
2022/08/23 02:36:56;;;;;;;6.28;5.50;;;15.50;99.90;;;;;;6193859;23;20090;-80
2022/08/23 02:39:22;;;;;;;7.97;5.43;;;15.50;99.90;;;;;;6217923;23;20016;-80
2022/08/23 02:41:48;;;;;;;8.85;6.20;;;15.50;99.90;;;;;;6245815;23;20024;-80
2022/08/23 02:44:14;;;;;;;7.53;5.30;;;15.50;99.90;;;;;;6218318;23;20318;-79
2022/08/23 02:46:41;;;;;;;10.40;6.88;;;15.50;99.90;;;;;;6243380;23;20047;-80
2022/08/23 02:49:08;;;;;;;13.13;6.07;;;15.50;99.90;;;;;;6246011;23;20012;-79
2022/08/23 02:51:34;;;;;;;9.95;6.53;;;15.50;99.90;;;;;;6218882;23;20020;-79
2022/08/23 02:54:02;;;;;;;11.05;7.03;;;15.50;99.90;;;;;;6244971;23;20440;-79
2022/08/23 02:56:27;;;;;;;13.85;7.43;;;15.50;99.90;;;;;;6245826;23;20012;-79
2022/08/23 02:58:53;;;;;;;16.38;7.25;;;15.50;99.90;;;;;;6245065;23;20345;-80
2022/08/23 03:01:23;;;;;;;14.40;9.20;;;15.50;99.90;;;;;;6217241;23;20023;-79
2022/08/23 03:03:49;;;;;;;12.25;7.80;;;15.50;99.90;;;;;;6246355;23;20020;-79
2022/08/23 03:06:15;;;;;;;10.93;7.75;;;15.50;99.90;;;;;;6245769;23;20324;-79
2022/08/23 03:08:42;;;;;;;10.07;6.95;;;15.50;99.90;;;;;;6218267;23;20078;-79
2022/08/23 03:11:13;;;;;;;11.90;6.55;;;15.50;99.90;;;;;;6245196;23;20048;-79
2022/08/23 03:13:40;;;;;;;7.00;6.10;;;15.50;99.90;;;;;;6244135;23;20016;-79
2022/08/23 03:16:07;;;;;;;6.45;5.63;;;15.50;99.90;;;;;;6217131;23;20048;-79
2022/08/23 03:18:34;;;;;;;6.90;6.18;;;15.50;99.90;;;;;;6219463;23;20436;-79
2022/08/23 03:21:00;;;;;;;7.47;6.20;;;15.40;99.90;;;;;;6246118;23;20020;-79
2022/08/23 03:23:26;;;;;;;7.75;6.95;;;15.40;99.90;;;;;;6246241;23;20447;-79
2022/08/23 03:25:52;;;;;;;13.02;7.05;;;15.50;99.90;;;;;;6220289;23;20095;-79
2022/08/23 03:28:19;;;;;;;10.32;7.13;;;15.40;99.90;;;;;;6194928;23;20105;-79
2022/08/23 03:30:44;;;;;;;7.90;6.70;;;15.50;99.90;;;;;;6195297;23;20103;-79
2022/08/23 03:33:10;;;;;;;9.50;8.23;;;15.40;99.90;;;;;;6246737;23;20047;-79
2022/08/23 03:35:36;;;;;;;9.43;7.00;;;15.40;99.90;;;;;;6219281;23;20042;-79
2022/08/23 03:38:02;;;;;;;8.30;6.63;;;15.40;99.90;;;;;;6220243;23;20024;-79
2022/08/23 03:40:28;;;;;;;7.45;6.47;;;15.40;99.90;;;;;;6220720;23;20345;-79
2022/08/23 03:42:53;;;;;;;8.95;5.90;;;15.40;99.90;;;;;;6245988;23;20452;-79
2022/08/23 03:45:19;;;;;;;14.23;6.53;;;15.40;99.90;;;;;;6220662;23;20020;-79
2022/08/23 03:47:45;;;;;;;10.70;6.88;;;15.40;99.90;;;;;;6247567;23;20008;-79
2022/08/23 03:50:11;;;;;;;7.75;6.18;;;15.30;99.90;;;;;;6245925;23;20020;-79
2022/08/23 03:52:37;;;;;;;8.93;7.05;;;15.30;99.90;;;;;;6247877;23;20068;-80
2022/08/23 03:55:04;;;;;;;7.63;5.95;;;15.30;99.90;;;;;;6220185;23;20510;-80
2022/08/23 03:57:29;;;;;;;5.47;5.00;;;15.30;99.90;;;;;;6246436;23;20471;-80
2022/08/23 03:59:58;;;;;;;10.88;6.20;;;15.30;99.90;;;;;;6246881;23;20012;-79
2022/08/23 04:02:25;;;;;;;8.32;6.35;;;15.20;99.90;;;;;;6247267;23;20340;-79
2022/08/23 04:04:50;;;;;;;6.40;5.80;;;15.20;99.90;;;;;;6245311;23;20023;-79
2022/08/23 04:07:20;;;;;;;11.55;7.35;;;15.20;99.90;;;;;;6220448;23;20091;-79
2022/08/23 04:09:46;;;;;;;10.57;8.02;;;15.20;99.90;;;;;;6247126;23;20099;-79
2022/08/23 04:12:12;;;;;;;8.13;6.65;;;15.20;99.90;;;;;;6246706;23;20039;-79
2022/08/23 04:14:38;;;;;;;10.48;5.93;;;15.20;99.90;;;;;;6220060;23;20094;-79
2022/08/23 04:17:04;;;;;;;8.48;6.13;;;15.10;99.90;;;;;;6220463;23;20445;-79
2022/08/23 04:19:30;;;;;;;7.18;4.28;;;15.10;99.90;;;;;;6245235;23;20020;-79
2022/08/23 04:21:56;;;;;;;6.35;5.10;;;15.10;99.90;;;;;;6247509;23;20016;-79
2022/08/23 04:24:21;;;;;;;6.53;5.50;;;15.10;99.90;;;;;;6246434;22;20101;-79
2022/08/23 04:26:47;;;;;;;7.63;5.53;;;15.10;99.90;;;;;;6219352;23;20020;-79
2022/08/23 04:29:15;;;;;;;5.95;5.32;;;15.00;99.90;;;;;;6219860;23;20012;-79
2022/08/23 04:31:43;;;;;;;4.90;4.50;;;15.00;99.90;;;;;;6246114;23;20016;-79
2022/08/23 04:34:08;;;;;;;6.47;4.80;;;14.90;99.90;;;;;;6245997;23;20034;-79
2022/08/23 04:36:38;;;;;;;11.18;6.07;;;14.90;99.90;;;;;;6219693;23;20456;-79
2022/08/23 04:39:05;;;;;;;11.73;6.35;;;14.90;99.90;;;;;;6194202;23;20340;-79
2022/08/23 04:44:15;;;;;;;13.20;7.18;;;14.90;99.90;;;;;;6247422;23;20016;-79
2022/08/23 04:46:42;;;;;;;9.82;8.00;;;14.90;99.90;;;;;;6193599;23;20388;-79
2022/08/23 04:49:10;;;;;;;7.90;7.20;;;15.00;99.90;;;;;;6245910;23;20012;-79
2022/08/23 04:51:36;;;;;;;8.00;7.00;;;15.00;99.90;;;;;;6217823;23;20023;-79
2022/08/23 04:54:02;;;;;;;8.77;6.70;;;15.00;99.90;;;;;;6245813;23;20012;-79
2022/08/23 04:56:28;;;;;;;7.15;6.47;;;15.10;99.90;;;;;;6246076;23;20027;-80
2022/08/23 04:58:54;;;;;;;7.68;6.80;;;15.00;99.90;;;;;;6220147;23;20035;-79
2022/08/23 05:01:20;;;;;;;7.93;6.93;;;15.10;99.90;;;;;;6218566;23;20024;-79
2022/08/23 05:03:46;;;;;;;9.13;6.65;;;15.10;99.90;;;;;;6219455;23;20020;-79
2022/08/23 05:06:12;;;;;;;10.50;7.47;;;15.10;99.90;;;;;;6218437;23;20433;-79
2022/08/23 05:08:38;;;;;;;9.80;6.75;;;15.10;99.90;;;;;;6216349;23;20016;-80
2022/08/23 05:11:06;;;;;;;9.27;8.02;;;15.10;99.90;;;;;;6219256;23;20016;-80
2022/08/23 05:13:33;;;;;;;11.02;7.80;;;15.10;99.90;;;;;;6246818;23;20103;-80
2022/08/23 05:15:59;;;;;;;9.32;8.43;;;15.20;99.90;;;;;;6245573;23;20094;-79
2022/08/23 05:18:25;;;;;;;8.93;8.02;;;15.20;99.90;;;;;;6245714;23;20470;-79
2022/08/23 05:20:52;;;;;;;11.10;8.13;;;15.30;99.90;;;;;;6217871;23;20106;-79
2022/08/23 05:23:18;;;;;;;8.80;7.95;;;15.30;99.90;;;;;;6219569;23;20499;-79
2022/08/23 05:25:50;;;;;;;9.70;8.57;;;15.40;99.90;;;;;;6219186;23;20383;-79
2022/08/23 05:28:43;;;;;;;10.13;8.70;;;15.40;99.90;;;;;;6193823;23;20052;-79
2022/08/23 05:31:15;;;;;;;12.43;9.32;;;15.50;99.90;;;;;;6213815;23;20098;-79
2022/08/23 05:33:42;;;;;;;15.68;9.68;;;15.50;99.90;;;;;;6219850;23;20078;-80
2022/08/23 05:36:10;;;;;;;15.05;10.48;;;15.60;99.90;;;;;;6217932;23;20019;-90
2022/08/23 05:38:36;;;;;;;14.02;10.45;;;15.70;99.90;;;;;;6246507;23;20012;-80
2022/08/23 05:41:02;;;;;;;12.20;10.93;;;15.70;99.90;;;;;;6219194;23;20456;-82
2022/08/23 05:43:31;;;;;;;14.98;12.85;;;15.80;99.90;;;;;;6245393;23;20044;-88
2022/08/23 05:46:03;;;;;;;12.55;10.13;;;15.80;99.90;;;;;;6218945;23;20024;-85
2022/08/23 05:48:29;;;;;;;18.15;11.45;;;15.90;99.90;;;;;;6219468;23;20047;-87
2022/08/23 05:51:13;;;;;;;14.82;11.32;;;16.00;99.90;;;;;;6193215;23;20023;-85
2022/08/23 05:53:43;;;;;;;14.13;11.35;;;16.10;99.90;;;;;;6193374;23;20019;-86
2022/08/23 05:56:16;;;;;;;18.17;11.57;;;16.20;99.90;;;;;;6218245;23;20103;-84
2022/08/23 05:58:43;;;;;;;19.33;12.73;;;16.40;99.90;;;;;;6219002;23;20022;-85
2022/08/23 06:01:09;;;;;;;19.33;13.63;;;16.50;99.90;;;;;;6193934;23;20024;-84
2022/08/23 06:03:35;;;;;;;18.88;13.43;;;16.70;99.90;;;;;;6245816;23;20108;-85
2022/08/23 06:06:02;;;;;;;18.45;12.88;;;16.80;99.90;;;;;;6219063;23;20066;-84
2022/08/23 06:08:28;;;;;;;13.75;12.13;;;16.90;99.90;;;;;;6218508;23;20020;-83
2022/08/23 06:11:11;;;;;;;20.98;13.80;;;17.00;99.90;;;;;;6245515;23;20016;-84
2022/08/23 06:13:43;;;;;;;16.55;12.70;;;17.10;99.90;;;;;;6218955;23;20111;-86
2022/08/23 06:16:10;;;;;;;15.23;11.30;;;17.20;99.90;;;;;;6219402;23;20459;-84
2022/08/23 06:18:36;;;;;;;14.18;11.32;;;17.30;99.90;;;;;;6244360;23;20020;-85
2022/08/23 06:21:10;;;;;;;12.52;11.30;;;17.40;99.90;;;;;;6246542;23;20070;-86
2022/08/23 06:23:36;;;;;;;15.10;11.35;;;17.50;99.90;;;;;;6193280;23;20016;-85
2022/08/23 06:26:14;;;;;;;16.30;11.98;;;17.60;99.90;;;;;;6244942;23;20020;-89
2022/08/23 06:28:42;;;;;;;13.93;10.90;;;17.70;99.90;;;;;;6245953;23;20012;-85
2022/08/23 06:31:08;;;;;;;12.35;9.73;;;17.70;99.90;;;;;;6218638;23;20091;-84
2022/08/23 06:33:50;;;;;;;13.48;10.80;;;17.80;99.90;;;;;;6245826;23;20017;-86
2022/08/23 06:36:22;;;;;;;14.43;11.30;;;17.90;99.90;;;;;;6220294;23;20340;-85
2022/08/23 06:38:49;;;;;;;13.35;10.00;;;17.10;99.90;;;;;;6244452;23;20016;-85
2022/08/23 06:41:18;;;;;;;12.07;10.25;;;18.10;99.90;;;;;;6219732;23;20012;-86
2022/08/23 06:43:47;;;;;;;14.57;10.15;;;18.20;99.90;;;;;;6218608;23;20020;-87
2022/08/23 06:46:42;;;;;;;16.02;10.15;;;17.40;99.90;;;;;;6193760;23;20054;-85
2022/08/23 06:49:08;;;;;;;14.40;10.18;;;18.40;99.90;;;;;;6243425;23;20499;-84
2022/08/23 06:52:05;;;;;;;15.15;11.45;;;18.40;99.90;;;;;;6245645;23;20020;-84
2022/08/23 06:54:33;;;;;;;16.05;10.70;;;18.50;99.90;;;;;;6245771;23;20468;-84
2022/08/23 06:57:02;;;;;;;13.50;10.32;;;18.50;99.90;;;;;;6221072;23;20077;-84
2022/08/23 06:59:28;;;;;;;17.63;9.75;;;18.50;99.90;;;;;;6220765;23;20012;-81
2022/08/23 07:02:02;;;;;;;12.40;9.80;;;18.60;99.90;;;;;;6220773;23;20031;-81
2022/08/23 07:04:32;;;;;;;;;;;18.60;99.90;;;;;;6221562;23;20099;-81
2022/08/23 07:07:00;;;;;;;13.02;9.48;;;18.60;99.90;;;;;;6246469;23;19915;-81
2022/08/23 07:09:26;;;;;;;12.30;8.70;;;18.70;99.90;;;;;;6220155;23;20408;-81
2022/08/23 07:11:53;;;;;;;9.95;8.75;;;18.70;99.90;;;;;;6248281;23;20009;-81
2022/08/23 07:14:20;;;;;;;12.90;8.13;;;18.80;99.90;;;;;;6246657;23;20027;-81
2022/08/23 07:16:48;;;;;;;13.07;8.98;;;18.90;99.90;;;;;;6220968;23;20055;-82
2022/08/23 07:19:15;;;;;;;17.42;8.57;;;19.00;99.90;;;;;;6220687;23;20020;-82
2022/08/23 07:21:42;;;;;;;16.17;8.13;;;19.10;99.90;;;;;;6218854;23;20081;-82
2022/08/23 07:24:08;;;;;;;12.30;8.27;;;19.20;99.90;;;;;;6220783;23;20020;-82
2022/08/23 07:26:36;;;;;;;15.50;7.75;;;19.20;99.90;;;;;;6247433;23;20020;-81
2022/08/23 07:29:06;;;;;;;12.05;7.80;;;19.30;99.90;;;;;;6194952;23;20020;-82
2022/08/23 07:31:37;;;;;;;11.13;7.15;;;19.40;99.90;;;;;;6220388;23;20023;-82
2022/08/23 07:34:04;;;;;;;14.30;7.40;;;19.50;99.90;;;;;;6248092;23;20375;-83
2022/08/23 07:36:31;;;;;;;8.80;7.10;;;19.60;99.90;;;;;;6218775;23;20047;-82
2022/08/23 07:38:57;;;;;;;9.73;7.43;;;19.60;99.90;;;;;;6220892;23;20016;-82
2022/08/23 07:41:27;;;;;;;10.60;7.25;;;19.70;99.90;;;;;;6194365;23;20023;-82
2022/08/23 07:43:53;;;;;;;13.40;6.75;;;19.70;99.90;;;;;;6246074;23;20437;-83
2022/08/23 07:46:19;;;;;;;13.57;7.05;;;19.80;99.90;;;;;;6219806;23;20538;-82
2022/08/23 07:48:45;;;;;;;14.38;6.75;;;19.90;99.90;;;;;;6246872;23;20016;-82
2022/08/23 07:51:13;;;;;;;11.65;7.13;;;20.00;99.90;;;;;;6219752;23;20115;-83
2022/08/23 07:53:39;;;;;;;10.18;7.20;;;20.10;99.90;;;;;;6220424;23;20043;-80
2022/08/23 07:56:07;;;;;;;13.15;6.53;;;20.20;99.90;;;;;;6219376;23;20020;-81
2022/08/23 07:58:33;;;;;;;26.60;6.75;;;20.30;99.90;;;;;;6220657;23;20016;-81
2022/08/23 08:01:15;;;;;;;12.63;5.90;;;20.40;99.90;;;;;;6220148;23;20016;-81
2022/08/23 08:03:43;;;;;;;9.85;5.70;;;20.50;99.90;;;;;;6219350;23;20016;-82
2022/08/23 08:06:21;;;;;;;7.78;4.80;;;20.50;99.90;;;;;;6220165;23;20020;-81
2022/08/23 08:08:48;;;;;;;7.20;4.85;;;20.60;99.90;;;;;;6220104;23;20396;-81
2022/08/23 08:11:16;;;;;;;14.10;4.82;;;20.70;99.90;;;;;;6219510;23;20027;-81
2022/08/23 08:13:44;;;;;;;10.07;4.50;;;20.70;99.90;;;;;;6247181;23;20016;-81
2022/08/23 08:16:25;;;;;;;6.63;4.40;;;20.80;99.90;;;;;;6220502;23;20344;-81
2022/08/23 08:18:52;;;;;;;8.35;4.65;;;20.80;99.90;;;;;;6218703;23;20019;-80
2022/08/23 08:21:18;;;;;;;9.52;3.70;;;20.90;99.90;;;;;;6247592;23;20018;-81
2022/08/23 08:23:44;;;;;;;7.22;3.65;;;21.00;99.90;;;;;;6193378;23;20016;-81
2022/08/23 08:26:10;;;;;;;7.93;3.97;;;21.10;99.90;;;;;;6220413;23;20019;-81
2022/08/23 08:28:39;;;;;;;8.27;4.22;;;21.20;99.90;;;;;;6247008;23;20051;-81
2022/08/23 08:31:05;;;;;;;10.07;5.00;;;21.30;99.90;;;;;;6219476;23;20017;-80
2022/08/23 08:33:31;;;;;;;10.60;5.07;;;21.40;99.90;;;;;;6219793;23;20058;-81
2022/08/23 08:35:58;;;;;;;8.27;4.68;;;21.50;99.90;;;;;;6194955;23;20559;-81
2022/08/23 08:38:24;;;;;;;10.18;4.53;;;21.60;99.90;;;;;;6218877;23;20016;-81
2022/08/23 08:41:16;;;;;;;9.15;3.90;;;21.70;99.90;;;;;;6247361;23;20020;-81
2022/08/23 08:43:50;;;;;;;6.95;4.00;;;21.70;99.90;;;;;;6194675;23;20012;-80
2022/08/23 08:46:37;;;;;;;6.28;3.10;;;21.80;99.90;;;;;;6246073;23;20020;-81
2022/08/23 08:49:06;;;;;;;6.60;3.78;;;21.80;99.90;;;;;;6245851;23;20070;-81
2022/08/23 08:51:41;;;;;;;7.78;3.30;;;21.80;99.90;;;;;;6195173;23;20086;-81
2022/08/23 08:54:11;;;;;;;9.45;3.28;;;21.90;99.90;;;;;;6219110;23;20437;-81
2022/08/23 08:56:38;;;;;;;9.95;3.28;;;22.00;99.90;;;;;;6194390;23;20020;-81
2022/08/23 08:59:08;;;;;;;6.63;3.10;;;22.10;99.90;;;;;;6218411;23;20081;-81
2022/08/23 09:01:36;;;;;;;12.45;4.10;;;22.30;99.90;;;;;;6194954;23;20027;-81
2022/08/23 09:04:04;;;;;;;7.40;3.55;;;22.40;99.90;;;;;;6219105;23;20012;-81
2022/08/23 09:06:42;;;;;;;6.53;3.33;;;22.50;99.90;;;;;;6218918;23;20031;-81
2022/08/23 09:09:26;;;;;;;10.75;3.55;;;22.60;99.90;;;;;;6219473;23;20055;-81
2022/08/23 09:11:58;;;;;;;6.00;3.00;;;22.70;99.90;;;;;;6247138;23;20337;-81
2022/08/23 09:14:23;;;;;;;4.68;2.92;;;22.80;99.90;;;;;;6245246;23;20380;-81
2022/08/23 09:16:51;;;;;;;5.35;3.17;;;22.90;99.90;;;;;;6246145;23;20020;-81
2022/08/23 09:19:19;;;;;;;9.50;3.97;;;23.00;99.90;;;;;;6193333;23;20379;-82
2022/08/23 09:22:01;;;;;;;7.65;3.55;;;23.00;99.90;;;;;;6218952;23;20012;-83
2022/08/23 09:24:28;;;;;;;12.02;3.70;;;23.20;99.90;;;;;;6194062;23;20016;-81
2022/08/23 09:26:55;;;;;;;8.75;3.70;;;23.30;99.90;;;;;;6218634;23;20016;-81
2022/08/23 09:29:25;;;;;;;5.60;3.22;;;23.30;99.90;;;;;;6219157;23;20444;-81
2022/08/23 09:31:54;;;;;;;6.32;3.90;;;23.40;99.90;;;;;;6244680;23;20016;-81
2022/08/23 09:34:29;;;;;;;9.38;4.00;;;23.50;99.90;;;;;;6216715;23;20109;-82
2022/08/23 09:37:23;;;;;;;10.27;3.90;;;23.60;99.90;;;;;;6216860;23;20016;-81
2022/08/23 09:40:10;;;;;;;6.05;3.88;;;23.70;99.90;;;;;;6193948;23;20088;-82
2022/08/23 09:42:38;;;;;;;7.90;4.07;;;23.70;99.90;;;;;;6218322;23;20020;-81
2022/08/23 09:45:27;;;;;;;5.93;3.70;;;23.70;99.90;;;;;;6219328;23;20098;-82
2022/08/23 09:47:53;;;;;;;6.35;2.67;;;23.80;99.90;;;;;;6245226;23;20016;-81
2022/08/23 09:50:33;;;;;;;11.13;3.80;;;23.70;99.90;;;;;;6218951;23;20027;-81
2022/08/23 09:53:07;;;;;;;15.30;4.10;;;23.70;99.90;;;;;;6218940;23;20113;-81
2022/08/23 09:55:37;;;;;;;16.95;4.00;;;23.70;99.90;;;;;;6219131;23;20047;-81
2022/08/23 09:58:15;;;;;;;6.72;4.15;;;23.70;99.90;;;;;;6218897;23;20016;-81
2022/08/23 10:00:41;;;;;;;10.13;3.90;;;23.60;99.90;;;;;;6219030;23;20066;-81
2022/08/23 10:03:21;;;;;;;8.90;3.22;;;23.70;99.90;;;;;;6218078;23;20023;-81
2022/08/23 10:05:56;;;;;;;10.90;3.08;;;23.70;99.90;;;;;;6194030;23;20020;-81
2022/08/23 10:08:31;;;;;;;7.95;2.97;;;23.80;99.90;;;;;;6245136;23;20012;-81
2022/08/23 10:11:38;;;;;;;6.28;3.17;;;24.00;99.90;;;;;;6245185;23;20016;-81
2022/08/23 10:14:04;;;;;;;6.45;2.97;;;24.10;99.90;;;;;;6194210;23;20016;-82
2022/08/23 10:16:54;;;;;;;8.35;2.75;;;24.30;99.90;;;;;;6245213;23;20016;-82
2022/08/23 10:19:47;;;;;;;7.15;2.80;;;24.30;99.90;;;;;;6218968;23;20020;-81
2022/08/23 10:22:22;;;;;;;5.75;2.80;;;24.40;99.90;;;;;;6217868;22;20518;-82
2022/08/23 10:25:01;;;;;;;4.55;2.70;;;24.40;99.90;;;;;;6193350;23;20053;-81
2022/08/23 10:30:35;;;;;;;6.15;2.90;;;24.60;99.90;;;;;;6221665;23;20023;-81
2022/08/23 10:33:12;;;;;;;12.93;3.25;;;24.60;99.90;;;;;;6249804;23;20401;-81
2022/08/23 10:35:51;;;;;;;8.15;2.70;;;24.70;99.90;;;;;;6220632;23;20024;-83
2022/08/23 10:38:45;;;;;;;6.95;3.90;;;24.70;99.90;;;;;;6219095;23;20035;-80
2022/08/23 10:41:32;;;;;;;19.88;4.07;;;24.80;99.90;;;;;;6246983;23;20069;-82
2022/08/23 10:44:24;;;;;;;6.18;2.55;;;24.90;99.90;;;;;;6246722;23;20059;-82
2022/08/23 10:47:16;;;;;;;6.00;2.47;;;24.80;99.90;;;;;;6157590;23;20313;-81
2022/08/23 10:49:45;;;;;;;10.02;2.92;;;24.90;99.90;;;;;;6248062;23;20015;-81
2022/08/23 10:52:28;;;;;;;9.70;2.90;;;24.90;99.90;;;;;;6245630;23;20016;-82
2022/08/23 10:55:15;;;;;;;9.15;2.85;;;25.00;99.90;;;;;;6222501;23;20027;-81
2022/08/23 10:57:44;;;;;;;6.70;2.75;;;25.00;99.90;;;;;;6249530;23;20024;-80
2022/08/23 11:00:31;;;;;;;5.10;2.53;;;25.10;99.90;;;;;;6249172;23;20015;-81
2022/08/23 11:03:16;;;;;;;6.90;2.65;;;25.30;99.90;;;;;;6249370;23;20016;-82
2022/08/23 11:05:42;;;;;;;8.77;2.80;;;25.40;99.90;;;;;;6221510;23;20131;-81
2022/08/23 11:08:28;;;;;;;7.20;2.90;;;25.40;99.90;;;;;;6249223;23;20039;-81
2022/08/23 11:10:54;;;;;;;5.18;2.33;;;25.40;99.90;;;;;;6247486;23;20471;-81
2022/08/23 11:13:23;;;;;;;8.02;2.50;;;25.50;99.90;;;;;;6221680;23;20020;-81
2022/08/23 11:16:14;;;;;;;5.43;2.30;;;25.50;99.90;;;;;;6222526;23;20020;-81
2022/08/23 11:18:45;;;;;;;6.68;2.22;;;25.60;99.90;;;;;;6222576;23;20024;-82
2022/08/23 11:21:17;;;;;;;10.15;3.35;;;25.70;99.90;;;;;;6221572;23;20325;-82
2022/08/23 11:23:58;;;;;;;7.65;3.38;;;25.70;99.90;;;;;;6221376;23;20020;-81
2022/08/23 11:26:28;;;;;;;5.55;2.70;;;25.70;99.90;;;;;;6196682;23;20027;-81
2022/08/23 11:29:06;;;;;;;6.90;2.28;;;25.70;99.90;;;;;;6249457;23;20021;-81
2022/08/23 11:31:49;;;;;;;5.95;2.42;;;25.70;99.90;;;;;;6249568;23;20024;-82
2022/08/23 11:34:24;;;;;;;5.90;2.60;;;25.80;99.90;;;;;;6221693;23;20070;-81
2022/08/23 11:37:18;;;;;;;8.90;2.45;;;25.80;99.90;;;;;;6222203;23;20016;-81
2022/08/23 11:40:08;;;;;;;9.25;2.85;;;25.90;99.90;;;;;;6248440;23;20340;-81
2022/08/23 11:42:37;;;;;;;7.13;2.10;;;25.90;99.90;;;;;;6193517;23;20016;-81
2022/08/23 11:45:25;;;;;;;5.65;2.90;;;26.00;99.90;;;;;;6220774;23;20051;-81
2022/08/23 11:48:14;;;;;;;8.25;2.20;;;26.00;99.90;;;;;;6219847;23;20082;-81
2022/08/23 11:50:49;;;;;;;5.93;2.63;;;26.00;99.90;;;;;;6191266;23;20020;-81
2022/08/23 11:53:30;;;;;;;5.80;2.22;;;26.00;99.90;;;;;;6220827;23;20096;-81
2022/08/23 11:56:11;;;;;;;10.00;2.65;;;26.00;99.90;;;;;;6219718;23;20020;-81
2022/08/23 11:59:05;;;;;;;4.65;1.83;;;26.10;99.90;;;;;;6195238;23;20027;-81
2022/08/23 12:01:37;;;;;;;18.63;3.50;;;26.10;99.90;;;;;;6247913;23;20328;-81
2022/08/23 12:04:37;;;;;;;8.98;2.40;;;26.20;99.90;;;;;;6220688;23;20016;-80
2022/08/23 12:07:11;;;;;;;7.63;2.35;;;26.20;99.50;;;;;;6220705;23;20039;-81
2022/08/23 12:09:39;;;;;;;;;;;26.20;99.80;;;;;;6246962;23;20087;-80
2022/08/23 12:12:28;;;;;;;5.45;2.05;;;26.30;99.90;;;;;;6220078;23;19950;-80
2022/08/23 12:14:58;;;;;;;6.80;2.63;;;26.40;99.90;;;;;;6247763;23;20020;-81
2022/08/23 12:17:26;;;;;;;8.27;2.53;;;26.40;99.90;;;;;;6219603;23;20012;-80
2022/08/23 12:20:09;;;;;;;9.05;2.75;;;26.50;99.90;;;;;;6247250;23;20518;-81
2022/08/23 12:23:02;;;;;;;7.40;2.92;;;26.60;99.40;;;;;;6219672;23;20149;-80
2022/08/23 12:25:30;;;;;;;6.80;2.38;;;26.70;98.80;;;;;;6220405;23;20379;-80
2022/08/23 12:28:10;;;;;;;6.40;1.88;;;26.70;98.80;;;;;;6219207;23;20056;-81
2022/08/23 12:30:55;;;;;;;7.03;1.92;;;26.70;98.70;;;;;;6218746;23;20009;-81
2022/08/23 12:33:46;;;;;;;6.38;2.13;;;26.70;98.20;;;;;;6220529;23;20027;-81
2022/08/23 12:36:26;;;;;;;6.55;2.10;;;26.70;98.60;;;;;;6247123;23;20016;-81
2022/08/23 12:39:17;;;;;;;5.05;1.85;;;26.70;97.10;;;;;;6219259;23;20022;-81
2022/08/23 12:42:01;;;;;;;6.13;2.08;;;26.80;96.20;;;;;;6194381;23;20023;-81
2022/08/23 12:44:29;;;;;;;8.75;1.92;;;26.80;96.40;;;;;;6245284;23;20024;-81
2022/08/23 12:46:56;;;;;;;7.50;2.15;;;26.90;96.00;;;;;;6218728;23;20016;-80
2022/08/23 12:49:28;;;;;;;7.05;1.52;;;27.00;94.80;;;;;;6218023;23;20019;-80
2022/08/23 12:51:57;;;;;;;5.65;2.15;;;27.00;94.30;;;;;;6218018;23;20016;-80
2022/08/23 12:54:34;;;;;;;5.65;1.90;;;27.10;94.30;;;;;;6220098;23;20087;-80
2022/08/23 12:57:08;;;;;;;5.93;1.77;;;27.10;93.30;;;;;;6194009;23;20066;-80
2022/08/23 12:59:52;;;;;;;;;;;27.00;93.60;;;;;;6245637;23;20022;-80
2022/08/23 13:02:25;;;;;;;7.65;1.80;;;27.00;94.40;;;;;;6193963;23;19916;-81
2022/08/23 13:04:53;;;;;;;6.78;2.15;;;27.00;94.60;;;;;;6219210;23;20058;-81
2022/08/23 13:07:22;;;;;;;10.05;2.22;;;27.10;94.10;;;;;;6219554;23;20085;-81
2022/08/23 13:09:49;;;;;;;9.13;2.13;;;27.10;94.90;;;;;;6219983;23;20042;-82
2022/08/23 13:12:17;;;;;;;7.47;2.42;;;27.10;95.00;;;;;;6219070;23;20022;-81
2022/08/23 13:14:49;;;;;;;6.18;2.33;;;27.00;94.80;;;;;;6218734;23;20344;-81
2022/08/23 13:17:23;;;;;;;8.02;2.55;;;26.90;95.10;;;;;;6219983;23;20027;-81